createdAt,value
2019-02-26T00:00:36.777Z,70.58
2019-02-26T00:03:05.282Z,70.58
2019-02-26T00:05:33.779Z,71.37
2019-02-26T00:08:02.589Z,71.37
2019-02-26T00:10:32.315Z,71.48
2019-02-26T00:13:01.518Z,71.52
2019-02-26T00:15:33.355Z,71.86
2019-02-26T00:18:00.236Z,71.78
2019-02-26T00:20:31.280Z,71.47
2019-02-26T00:22:59.855Z,71.47
2019-02-26T00:25:29.265Z,72.35
2019-02-26T00:27:58.651Z,72.79
2019-02-26T00:30:27.376Z,72.79
2019-02-26T00:32:57.711Z,72.48
2019-02-26T00:35:27.616Z,72.42
2019-02-26T00:37:56.277Z,72.42
2019-02-26T00:40:24.779Z,71.67
2019-02-26T00:42:56.524Z,71.67
2019-02-26T00:45:26.895Z,72.18
2019-02-26T00:47:53.779Z,72.60
2019-02-26T00:50:22.285Z,72.94
2019-02-26T00:52:52.361Z,72.94
2019-02-26T00:55:23.137Z,72.66
2019-02-26T00:57:51.289Z,72.78
2019-02-26T01:00:19.792Z,73.51
2019-02-26T01:02:48.288Z,73.51
2019-02-26T01:05:16.898Z,73.85
2019-02-26T01:07:47.416Z,74.14
2019-02-26T01:10:16.414Z,73.79
2019-02-26T01:12:45.880Z,73.79
2019-02-26T01:15:19.155Z,72.73
2019-02-26T01:17:47.659Z,72.14
2019-02-26T01:20:19.314Z,72.31
2019-02-26T01:22:47.599Z,73.60
2019-02-26T01:25:18.498Z,74.00
2019-02-26T01:27:48.288Z,74.00
2019-02-26T01:30:20.743Z,73.61
2019-02-26T01:32:46.928Z,73.28
2019-02-26T01:35:15.441Z,72.79
2019-02-26T01:37:43.969Z,72.06
2019-02-26T01:40:15.826Z,71.93
2019-02-26T01:42:47.252Z,71.93
2019-02-26T01:45:13.824Z,71.93
2019-02-26T01:47:44.906Z,72.19
2019-02-26T01:50:13.967Z,72.23
2019-02-26T01:52:43.412Z,72.75
2019-02-26T01:55:12.307Z,72.75
2019-02-26T01:57:43.438Z,72.70
2019-02-26T02:00:16.598Z,72.66
2019-02-26T02:02:45.122Z,72.89
2019-02-26T02:05:13.651Z,72.70
2019-02-26T02:07:44.223Z,72.70
2019-02-26T02:10:15.124Z,73.10
2019-02-26T02:12:43.629Z,73.34
2019-02-26T02:15:18.239Z,73.09
2019-02-26T02:17:46.008Z,72.96
2019-02-26T02:20:20.823Z,72.80
2019-02-26T02:22:47.817Z,72.80
2019-02-26T02:25:16.325Z,72.91
2019-02-26T02:27:47.714Z,72.97
2019-02-26T02:30:22.402Z,73.44
2019-02-26T02:32:50.409Z,73.59
2019-02-26T02:35:19.102Z,73.73
2019-02-26T02:37:47.074Z,73.60
2019-02-26T02:40:15.587Z,74.06
2019-02-26T02:42:48.443Z,73.87
2019-02-26T02:45:16.983Z,74.47
2019-02-26T02:47:44.552Z,74.31
2019-02-26T02:50:15.074Z,74.75
2019-02-26T02:52:44.166Z,74.67
2019-02-26T02:55:15.635Z,74.84
2019-02-26T02:57:42.920Z,74.71
2019-02-26T03:00:16.102Z,74.99
2019-02-26T03:02:46.484Z,74.99
2019-02-26T03:05:14.834Z,74.37
2019-02-26T03:07:46.088Z,74.18
2019-02-26T03:10:15.205Z,73.10
2019-02-26T03:12:47.663Z,71.78
2019-02-26T03:15:15.071Z,71.63
2019-02-26T03:17:43.571Z,71.25
2019-02-26T03:20:15.149Z,69.12
2019-02-26T03:22:48.307Z,69.58
2019-02-26T03:25:20.977Z,69.09
2019-02-26T03:27:48.035Z,69.24
2019-02-26T03:30:27.461Z,69.34
2019-02-26T03:32:58.644Z,69.99
2019-02-26T03:35:23.804Z,70.94
2019-02-26T03:37:55.628Z,72.53
2019-02-26T03:40:24.097Z,72.80
2019-02-26T03:42:52.968Z,72.76
2019-02-26T03:45:24.723Z,73.19
2019-02-26T03:47:51.770Z,73.45
2019-02-26T03:50:20.258Z,74.02
2019-02-26T03:52:48.777Z,75.07
2019-02-26T03:55:18.934Z,75.26
2019-02-26T03:57:50.579Z,74.44
2019-02-26T04:00:19.854Z,74.68
2019-02-26T04:02:51.281Z,75.30
2019-02-26T04:05:18.933Z,75.49
2019-02-26T04:07:49.845Z,75.51
2019-02-26T04:10:17.679Z,75.42
2019-02-26T04:12:48.715Z,75.31
2019-02-26T04:15:17.455Z,75.78
2019-02-26T04:17:45.950Z,75.62
2019-02-26T04:20:15.258Z,76.04
2019-02-26T04:22:49.029Z,76.26
2019-02-26T04:25:33.958Z,76.20
2019-02-26T04:28:10.838Z,75.79
2019-02-26T04:30:56.980Z,75.94
2019-02-26T04:33:49.630Z,75.95
2019-02-26T04:36:27.342Z,75.66
2019-02-26T04:39:16.366Z,76.01
2019-02-26T04:42:09.436Z,75.88
2019-02-26T04:44:58.114Z,75.58
2019-02-26T04:47:30.782Z,75.67
2019-02-26T04:50:00.501Z,75.88
2019-02-26T04:52:29.581Z,75.92
2019-02-26T04:54:59.122Z,76.12
2019-02-26T04:57:27.702Z,76.02
2019-02-26T04:59:58.377Z,76.34
2019-02-26T05:02:26.436Z,76.49
2019-02-26T05:04:54.942Z,76.69
2019-02-26T05:07:23.467Z,76.53
2019-02-26T05:09:53.797Z,76.48
2019-02-26T05:12:25.111Z,76.72
2019-02-26T05:14:52.487Z,76.49
2019-02-26T05:17:23.795Z,76.43
2019-02-26T05:19:51.852Z,76.39
2019-02-26T05:22:24.870Z,76.52
2019-02-26T05:24:52.898Z,76.40
2019-02-26T05:27:22.750Z,76.08
2019-02-26T05:29:54.542Z,76.11
2019-02-26T05:32:26.557Z,76.14
2019-02-26T05:34:52.328Z,75.69
2019-02-26T05:37:20.825Z,75.81
2019-02-26T05:39:51.705Z,75.45
2019-02-26T05:42:19.567Z,74.77
2019-02-26T05:44:48.073Z,74.50
2019-02-26T05:47:18.671Z,74.43
2019-02-26T05:49:46.854Z,72.95
2019-02-26T05:52:15.428Z,72.95
2019-02-26T05:54:43.944Z,72.17
2019-02-26T05:57:27.196Z,71.73
2019-02-26T05:59:42.768Z,72.12
2019-02-26T06:02:13.409Z,71.91
2019-02-26T06:04:43.874Z,71.69
2019-02-26T06:07:11.749Z,71.56
2019-02-26T06:09:40.243Z,71.56
2019-02-26T06:12:08.803Z,70.84
2019-02-26T06:14:39.333Z,70.03
2019-02-26T06:17:09.698Z,70.20
2019-02-26T06:19:48.312Z,69.93
2019-02-26T06:22:18.214Z,69.80
2019-02-26T06:24:47.106Z,69.94
2019-02-26T06:27:18.309Z,70.21
2019-02-26T06:29:45.828Z,70.30
2019-02-26T06:32:16.139Z,70.68
2019-02-26T06:34:44.635Z,70.90
2019-02-26T06:37:16.632Z,70.22
2019-02-26T06:39:45.276Z,70.43
2019-02-26T06:42:14.512Z,70.42
2019-02-26T06:44:43.746Z,70.28
2019-02-26T06:47:13.396Z,69.95
2019-02-26T06:49:43.238Z,69.68
2019-02-26T06:52:13.125Z,68.34
2019-02-26T06:54:45.258Z,67.53
2019-02-26T06:57:12.636Z,63.47
2019-02-26T06:59:41.134Z,58.66
2019-02-26T07:02:11.034Z,57.81
2019-02-26T07:04:40.025Z,57.50
2019-02-26T07:07:12.190Z,58.32
2019-02-26T07:09:39.615Z,58.32
2019-02-26T07:12:08.974Z,58.22
2019-02-26T07:14:37.502Z,58.89
2019-02-26T07:17:05.974Z,57.96
2019-02-26T07:19:35.854Z,58.88
2019-02-26T07:22:05.417Z,59.75
2019-02-26T07:24:34.942Z,59.57
2019-02-26T07:27:04.301Z,61.06
2019-02-26T07:29:37.544Z,61.06
2019-02-26T07:32:03.927Z,61.03
2019-02-26T07:34:32.429Z,60.07
2019-02-26T07:37:00.945Z,59.15
2019-02-26T07:39:29.474Z,57.75
2019-02-26T07:41:57.971Z,56.81
2019-02-26T07:44:28.339Z,57.72
2019-02-26T07:46:58.436Z,56.86
2019-02-26T07:49:26.906Z,56.52
2019-02-26T07:51:57.411Z,57.59
2019-02-26T07:54:25.661Z,56.32
2019-02-26T07:56:55.116Z,55.76
2019-02-26T07:59:27.640Z,55.89
2019-02-26T08:01:54.635Z,56.93
2019-02-26T08:04:23.179Z,57.04
2019-02-26T08:06:52.416Z,57.16
2019-02-26T08:09:23.624Z,57.03
2019-02-26T08:11:52.201Z,56.66
2019-02-26T08:14:21.374Z,56.93
2019-02-26T08:16:53.669Z,57.30
2019-02-26T08:19:21.225Z,56.42
2019-02-26T08:21:50.362Z,56.67
2019-02-26T08:24:23.840Z,57.38
2019-02-26T08:26:50.186Z,57.05
2019-02-26T08:29:18.732Z,55.66
2019-02-26T08:31:49.398Z,54.58
2019-02-26T08:34:17.458Z,54.42
2019-02-26T08:36:46.773Z,55.22
2019-02-26T08:39:15.878Z,54.59
2019-02-26T08:41:56.762Z,54.02
2019-02-26T08:44:25.248Z,54.75
2019-02-26T08:46:53.746Z,54.72
2019-02-26T08:49:22.607Z,54.87
2019-02-26T08:51:51.076Z,55.13
2019-02-26T08:54:21.113Z,54.88
2019-02-26T08:56:49.840Z,56.01
2019-02-26T08:59:20.099Z,54.19
2019-02-26T09:01:48.723Z,53.39
2019-02-26T09:04:19.175Z,53.89
2019-02-26T09:06:47.491Z,52.08
2019-02-26T09:09:15.990Z,49.23
2019-02-26T09:11:44.506Z,49.28
2019-02-26T09:14:14.233Z,49.07
2019-02-26T09:16:43.236Z,48.59
2019-02-26T09:19:11.770Z,49.07
2019-02-26T09:21:42.608Z,49.73
2019-02-26T09:24:16.863Z,48.26
2019-02-26T09:26:45.358Z,50.05
2019-02-26T09:30:06.728Z,48.22
2019-02-26T09:32:44.862Z,48.16
2019-02-26T09:35:16.919Z,47.36
2019-02-26T09:37:47.324Z,47.70
2019-02-26T09:43:06.117Z,48.29
2019-02-26T09:45:34.845Z,47.29
2019-02-26T09:48:03.414Z,47.10
2019-02-26T09:50:31.902Z,48.29
2019-02-26T09:53:00.391Z,48.27
2019-02-26T09:55:28.940Z,49.41
2019-02-26T09:57:57.446Z,50.54
2019-02-26T10:00:29.117Z,49.89
2019-02-26T10:02:56.208Z,48.54
2019-02-26T10:05:24.700Z,47.27
2019-02-26T10:07:54.980Z,47.89
2019-02-26T10:10:26.054Z,49.45
2019-02-26T10:12:56.467Z,48.93
2019-02-26T10:15:24.419Z,48.80
2019-02-26T10:17:52.942Z,49.01
2019-02-26T10:20:31.016Z,48.60
2019-02-26T10:23:00.748Z,47.41
2019-02-26T10:25:31.037Z,46.60
2019-02-26T10:28:03.084Z,45.94
2019-02-26T10:30:31.404Z,47.18
2019-02-26T10:33:01.839Z,46.42
2019-02-26T10:35:33.272Z,46.46
2019-02-26T10:38:02.827Z,47.53
2019-02-26T10:40:35.303Z,47.62
2019-02-26T10:43:00.192Z,46.46
2019-02-26T10:45:29.591Z,46.22
2019-02-26T10:47:59.429Z,45.91
2019-02-26T10:50:31.788Z,45.33
2019-02-26T10:53:06.951Z,44.99
2019-02-26T10:55:35.319Z,45.56
2019-02-26T10:58:03.587Z,45.06
2019-02-26T11:00:32.176Z,45.26
2019-02-26T11:03:00.359Z,45.27
2019-02-26T11:05:28.865Z,45.06
2019-02-26T11:07:59.708Z,44.27
2019-02-26T11:10:27.608Z,44.57
2019-02-26T11:12:58.554Z,43.92
2019-02-26T11:15:29.793Z,43.82
2019-02-26T11:17:56.635Z,44.20
2019-02-26T11:20:27.834Z,44.11
2019-02-26T11:22:55.372Z,44.26
2019-02-26T11:25:26.524Z,45.06
2019-02-26T11:27:54.135Z,45.15
2019-02-26T11:30:28.535Z,45.17
2019-02-26T11:32:58.633Z,46.26
2019-02-26T11:35:25.405Z,46.30
2019-02-26T11:37:55.441Z,44.82
2019-02-26T11:40:28.100Z,45.24
2019-02-26T11:42:55.756Z,44.23
2019-02-26T11:45:24.666Z,44.89
2019-02-26T11:47:55.177Z,43.37
2019-02-26T11:50:28.025Z,45.37
2019-02-26T11:52:55.041Z,45.19
2019-02-26T11:55:26.177Z,44.70
2019-02-26T11:57:53.993Z,45.49
2019-02-26T12:00:37.322Z,44.93
2019-02-26T12:03:04.986Z,45.08
2019-02-26T12:05:35.890Z,45.60
2019-02-26T12:08:03.723Z,45.28
2019-02-26T12:10:33.205Z,46.42
2019-02-26T12:13:02.487Z,45.78
2019-02-26T12:15:33.457Z,45.32
2019-02-26T12:18:01.264Z,44.41
2019-02-26T12:20:30.577Z,43.80
2019-02-26T12:22:59.127Z,44.46
2019-02-26T12:25:27.634Z,43.44
2019-02-26T12:27:56.195Z,43.53
2019-02-26T12:30:26.504Z,43.53
2019-02-26T12:32:55.261Z,43.06
2019-02-26T12:35:23.805Z,43.44
2019-02-26T12:37:53.899Z,43.21
2019-02-26T12:40:25.336Z,42.41
2019-02-26T12:42:52.804Z,42.59
2019-02-26T12:45:22.702Z,43.34
2019-02-26T12:47:53.093Z,43.86
2019-02-26T12:50:26.096Z,44.02
2019-02-26T12:52:53.837Z,43.94
2019-02-26T12:55:28.970Z,43.36
2019-02-26T12:57:56.340Z,43.38
2019-02-26T13:00:24.493Z,43.68
2019-02-26T13:02:52.991Z,44.06
2019-02-26T13:05:23.013Z,44.93
2019-02-26T13:07:51.814Z,44.68
2019-02-26T13:10:27.758Z,44.80
2019-02-26T13:13:00.026Z,45.63
2019-02-26T13:15:26.490Z,44.95
2019-02-26T13:17:54.993Z,43.95
2019-02-26T13:20:29.488Z,44.95
2019-02-26T13:23:16.470Z,44.76
2019-02-26T13:25:28.265Z,44.94
2019-02-26T13:27:56.776Z,43.78
2019-02-26T13:30:25.887Z,43.54
2019-02-26T13:32:59.792Z,43.75
2019-02-26T13:35:24.632Z,43.84
2019-02-26T13:37:55.429Z,44.19
2019-02-26T13:40:24.721Z,43.97
2019-02-26T13:45:24.660Z,44.22
2019-02-26T13:48:00.732Z,43.56
2019-02-26T13:50:28.843Z,44.35
2019-02-26T13:52:57.314Z,44.32
2019-02-26T13:55:25.822Z,44.27
2019-02-26T13:57:54.335Z,42.83
2019-02-26T14:00:26.223Z,41.30
2019-02-26T14:02:53.242Z,41.85
2019-02-26T14:05:21.747Z,41.97
2019-02-26T14:07:50.278Z,41.70
2019-02-26T14:10:20.939Z,42.11
2019-02-26T14:12:49.504Z,41.97
2019-02-26T14:15:23.762Z,42.70
2019-02-26T14:17:52.569Z,42.45
2019-02-26T14:20:21.553Z,42.32
2019-02-26T14:22:50.066Z,42.98
2019-02-26T14:25:18.664Z,43.62
2019-02-26T14:27:47.190Z,42.22
2019-02-26T14:30:21.078Z,42.90
2019-02-26T14:32:49.616Z,43.28
2019-02-26T14:35:18.121Z,43.18
2019-02-26T14:37:46.698Z,42.83
2019-02-26T14:40:18.662Z,42.72
2019-02-26T14:42:47.167Z,43.10
2019-02-26T14:45:24.069Z,43.33
2019-02-26T14:47:52.579Z,43.09
2019-02-26T14:50:22.232Z,42.90
2019-02-26T14:52:50.740Z,42.87
2019-02-26T14:55:19.247Z,43.10
2019-02-26T14:57:47.780Z,44.13
2019-02-26T15:00:29.839Z,44.62
2019-02-26T15:02:58.465Z,44.62
2019-02-26T15:05:26.967Z,43.55
2019-02-26T15:07:55.466Z,44.13
2019-02-26T15:10:24.005Z,44.13
2019-02-26T15:12:52.591Z,44.73
2019-02-26T15:15:21.171Z,45.30
2019-02-26T15:17:49.697Z,45.49
2019-02-26T15:20:20.272Z,45.55
2019-02-26T15:22:48.849Z,45.49
2019-02-26T15:25:24.917Z,45.29
2019-02-26T15:27:53.469Z,45.79
2019-02-26T15:30:22.398Z,45.77
2019-02-26T15:32:50.961Z,46.28
2019-02-26T15:35:19.484Z,46.40
2019-02-26T15:37:48.006Z,45.95
2019-02-26T15:40:20.085Z,45.13
2019-02-26T15:42:52.445Z,45.61
2019-02-26T15:45:28.880Z,45.23
2019-02-26T15:47:56.851Z,45.35
2019-02-26T15:50:25.356Z,46.21
2019-02-26T15:52:53.862Z,45.79
2019-02-26T15:55:32.149Z,46.33
2019-02-26T15:58:04.343Z,46.50
2019-02-26T16:00:30.915Z,46.65
2019-02-26T16:03:00.127Z,46.69
2019-02-26T16:05:33.931Z,46.71
2019-02-26T16:08:02.434Z,47.03
2019-02-26T16:10:30.973Z,46.91
2019-02-26T16:13:05.706Z,47.30
2019-02-26T16:15:38.762Z,47.33
2019-02-26T16:18:07.255Z,46.90
2019-02-26T16:20:35.759Z,46.74
2019-02-26T16:23:04.258Z,46.66
2019-02-26T16:25:32.758Z,46.36
2019-02-26T16:28:01.320Z,47.02
2019-02-26T16:30:29.938Z,47.03
2019-02-26T16:32:58.545Z,46.50
2019-02-26T16:35:27.064Z,47.08
2019-02-26T16:37:55.577Z,46.89
2019-02-26T16:40:24.120Z,47.11
2019-02-26T16:42:52.626Z,46.83
2019-02-26T16:45:22.809Z,46.74
2019-02-26T16:47:51.320Z,46.28
2019-02-26T16:50:22.588Z,46.75
2019-02-26T16:52:51.130Z,47.33
2019-02-26T16:55:20.243Z,47.26
2019-02-26T16:57:48.925Z,48.07
2019-02-26T17:00:30.551Z,48.77
2019-02-26T17:03:01.013Z,48.45
2019-02-26T17:05:29.343Z,48.91
2019-02-26T17:07:58.114Z,48.73
2019-02-26T17:10:30.214Z,49.53
2019-02-26T17:13:01.985Z,49.46
2019-02-26T17:15:32.790Z,49.82
2019-02-26T17:18:01.334Z,50.24
2019-02-26T17:20:29.836Z,49.97
2019-02-26T17:22:58.350Z,50.66
2019-02-26T17:25:28.465Z,50.71
2019-02-26T17:27:57.224Z,51.15
2019-02-26T17:30:25.720Z,51.11
2019-02-26T17:32:54.238Z,51.55
2019-02-26T17:35:22.721Z,52.42
2019-02-26T17:37:51.269Z,52.93
2019-02-26T17:40:21.747Z,53.20
2019-02-26T17:42:51.242Z,51.74
2019-02-26T17:45:25.805Z,51.50
2019-02-26T17:47:56.472Z,52.41
2019-02-26T17:50:30.756Z,51.91
2019-02-26T17:52:59.257Z,52.03
2019-02-26T17:55:27.833Z,51.70
2019-02-26T17:57:56.345Z,51.75
2019-02-26T18:00:27.049Z,51.35
2019-02-26T18:02:55.626Z,49.25
2019-02-26T18:05:24.118Z,48.76
2019-02-26T18:07:52.616Z,48.47
2019-02-26T18:10:22.949Z,49.25
2019-02-26T18:12:51.461Z,48.23
2019-02-26T18:15:20.831Z,47.87
2019-02-26T18:17:49.554Z,48.04
2019-02-26T18:20:19.397Z,47.86
2019-02-26T18:22:47.952Z,48.05
2019-02-26T18:25:18.935Z,48.47
2019-02-26T18:27:47.449Z,48.05
2019-02-26T18:30:21.388Z,48.46
2019-02-26T18:32:50.652Z,49.04
2019-02-26T18:35:20.192Z,49.26
2019-02-26T18:37:48.720Z,48.68
2019-02-26T18:40:17.924Z,49.41
2019-02-26T18:42:46.650Z,49.73
2019-02-26T18:45:27.910Z,50.32
2019-02-26T18:47:56.598Z,49.37
2019-02-26T18:50:25.907Z,49.19
2019-02-26T18:52:55.324Z,49.02
2019-02-26T18:55:27.935Z,49.76
2019-02-26T18:57:54.524Z,49.81
2019-02-26T19:00:29.351Z,50.55
2019-02-26T19:02:57.875Z,50.72
2019-02-26T19:05:26.384Z,51.04
2019-02-26T19:07:54.897Z,50.66
2019-02-26T19:10:23.404Z,50.82
2019-02-26T19:12:51.937Z,50.63
2019-02-26T19:15:35.911Z,50.83
2019-02-26T19:18:04.482Z,50.77
2019-02-26T19:20:35.267Z,50.48
2019-02-26T19:23:03.748Z,50.82
2019-02-26T19:25:32.254Z,50.82
2019-02-26T19:28:00.766Z,50.75
2019-02-26T19:30:29.380Z,51.26
2019-02-26T19:32:57.878Z,51.84
2019-02-26T19:35:26.376Z,52.02
2019-02-26T19:37:57.695Z,52.04
2019-02-26T19:40:44.058Z,52.63
2019-02-26T19:43:12.587Z,52.59
2019-02-26T19:45:43.818Z,53.19
2019-02-26T19:48:11.328Z,53.27
2019-02-26T19:50:39.840Z,53.10
2019-02-26T19:53:08.362Z,53.92
2019-02-26T19:55:39.697Z,54.01
2019-02-26T19:58:08.205Z,54.37
2019-02-26T20:00:36.815Z,54.37
2019-02-26T20:03:06.249Z,54.15
2019-02-26T20:05:34.931Z,54.19
2019-02-26T20:08:05.348Z,54.31
2019-02-26T20:10:33.686Z,54.67
2019-02-26T20:13:04.004Z,53.94
2019-02-26T20:15:32.412Z,53.74
2019-02-26T20:18:00.921Z,54.09
2019-02-26T20:20:29.469Z,54.33
2019-02-26T20:22:57.970Z,54.00
2019-02-26T20:25:26.475Z,54.01
2019-02-26T20:27:58.066Z,54.39
2019-02-26T20:30:25.217Z,54.65
2019-02-26T20:32:53.773Z,54.62
2019-02-26T20:35:22.323Z,54.78
2019-02-26T20:37:50.842Z,54.92
2019-02-26T20:40:21.712Z,54.88
2019-02-26T20:42:50.228Z,55.27
2019-02-26T20:45:19.477Z,55.16
2019-02-26T20:47:47.973Z,54.82
2019-02-26T20:50:19.993Z,55.33
2019-02-26T20:52:46.734Z,55.91
2019-02-26T20:55:19.125Z,56.29
2019-02-26T20:57:48.486Z,56.37
2019-02-26T21:00:18.591Z,56.30
2019-02-26T21:02:47.393Z,56.39
2019-02-26T21:05:15.907Z,56.33
2019-02-26T21:07:44.407Z,56.25
2019-02-26T21:10:17.642Z,56.20
2019-02-26T21:12:46.141Z,56.06
2019-02-26T21:15:19.979Z,56.17
2019-02-26T21:17:48.486Z,56.22
2019-02-26T21:20:16.987Z,55.97
2019-02-26T21:22:45.530Z,56.12
2019-02-26T21:25:14.453Z,56.07
2019-02-26T21:27:42.939Z,55.74
2019-02-26T21:30:19.837Z,56.12
2019-02-26T21:32:48.335Z,56.27
2019-02-26T21:35:20.067Z,56.05
2019-02-26T21:37:48.302Z,55.79
2019-02-26T21:40:17.171Z,56.57
2019-02-26T21:42:45.704Z,56.59
2019-02-26T21:45:17.874Z,57.01
2019-02-26T21:47:46.369Z,57.16
2019-02-26T21:50:15.579Z,56.76
2019-02-26T21:52:44.076Z,56.54
2019-02-26T21:55:13.612Z,56.44
2019-02-26T21:57:42.118Z,56.57
2019-02-26T22:00:20.286Z,56.60
2019-02-26T22:02:51.938Z,56.40
2019-02-26T22:05:19.186Z,56.98
2019-02-26T22:07:52.069Z,56.89
2019-02-26T22:10:22.443Z,57.60
2019-02-26T22:12:50.978Z,56.85
2019-02-26T22:15:19.474Z,57.16
2019-02-26T22:17:47.985Z,57.25
2019-02-26T22:20:35.539Z,57.53
2019-02-26T22:22:50.290Z,57.63
2019-02-26T22:25:18.894Z,57.10
2019-02-26T22:27:47.427Z,56.65
2019-02-26T22:30:21.463Z,56.96
2019-02-26T22:32:47.479Z,56.70
2019-02-26T22:35:15.976Z,56.87
2019-02-26T22:37:44.515Z,56.89
2019-02-26T22:40:14.017Z,56.62
2019-02-26T22:42:42.531Z,56.84
2019-02-26T22:45:13.486Z,56.71
2019-02-26T22:47:43.918Z,56.96
2019-02-26T22:50:14.328Z,56.64
2019-02-26T22:52:43.627Z,56.84
2019-02-26T22:55:17.172Z,57.10
2019-02-26T22:57:45.805Z,56.99
2019-02-26T23:00:27.993Z,56.99
2019-02-26T23:02:56.496Z,56.67
2019-02-26T23:05:25.638Z,56.87
2019-02-26T23:07:54.635Z,57.30
2019-02-26T23:10:24.729Z,57.22
2019-02-26T23:12:53.358Z,56.67
2019-02-26T23:15:21.870Z,56.62
2019-02-26T23:17:50.368Z,57.11
2019-02-26T23:20:18.927Z,56.74
2019-02-26T23:22:47.410Z,56.81
2019-02-26T23:25:16.003Z,56.72
2019-02-26T23:27:46.036Z,57.16
2019-02-26T23:30:14.934Z,57.11
2019-02-26T23:32:43.493Z,57.23
2019-02-26T23:35:14.152Z,57.21
2019-02-26T23:37:42.679Z,57.38
2019-02-26T23:40:12.062Z,57.62
2019-02-26T23:42:40.562Z,57.50
2019-02-26T23:45:10.801Z,57.68
2019-02-26T23:47:39.299Z,57.62
2019-02-26T23:50:09.401Z,57.49
2019-02-26T23:52:37.910Z,57.85
2019-02-26T23:55:08.009Z,57.85
2019-02-26T23:57:36.558Z,57.39
